KMNH

Monument Pass Airport

Monument Pass, Colorado, USA
METAR KMNH 180851Z AUTO 24009KT 10SM CLR M02/M13 A2998 RMK AO2
Observed Flight Rules
Dec-18 @ 08:51 UTC (11 minutes ago) Visual Flight Rules
Wind Visibility Clouds
240° at 9 knots 10 miles
  • Clear skies
Temperatures Readings
Current -2°C / 28°F
Dewpoint -13°C / 9°F
Humidity 43%
Altimeter 29.98" Hg
Pressure 1015 hPa
Elevation 2152
METAR KMNH 180851Z AUTO 24009KT 10SM CLR M02/M13 A2998 RMK AO2
Observed Flight Rules
Dec-18 @ 08:51 UTC
(11 minutes ago)
VFR
Wind Visibility
240° at 9 knots 10 miles
Clouds
  • Clear skies
Temperature Dewpoint
-2°C / 28°F -13°C / 9°F
Humidity Altimeter Pressure
43% 29.98" Hg 1015 hPa